Time;durP1;ratioP1;P1;durP2;ratioP2;P2;SDS_P1;SDS_P2;PMS_P1;PMS_P2;Temp;Humidity;BMP_temperature;BMP_pressure;BME280_temperature;BME280_humidity;BME280_pressure;Samples;Min_cycle;Max_cycle;Signal;HPM_P1;HPM_P2
2021/10/21 00:00:27;;;;;;;21.95;10.90;;;;;;;;;;5076132;28;20024;-63
2021/10/21 00:02:53;;;;;;;21.30;10.75;;;;;;;;;;5076027;28;20026;-65
2021/10/21 00:05:19;;;;;;;21.25;10.50;;;;;;;;;;5075878;28;20373;-64
2021/10/21 00:07:45;;;;;;;18.58;9.43;;;;;;;;;;5075696;28;20480;-63
2021/10/21 00:10:12;;;;;;;19.58;9.68;;;;;;;;;;5075961;28;20020;-64
2021/10/21 00:12:38;;;;;;;20.33;9.38;;;;;;;;;;5075930;28;20024;-63
2021/10/21 00:15:05;;;;;;;20.48;10.18;;;;;;;;;;5075876;28;20471;-63
2021/10/21 00:17:31;;;;;;;19.13;9.00;;;;;;;;;;5075467;28;20024;-62
2021/10/21 00:19:58;;;;;;;18.45;9.10;;;;;;;;;;5075514;28;20028;-65
2021/10/21 00:22:24;;;;;;;18.98;8.68;;;;;;;;;;5075720;28;20036;-65
2021/10/21 00:24:49;;;;;;;21.08;8.98;;;;;;;;;;5075587;28;20031;-62
2021/10/21 00:27:16;;;;;;;18.50;8.18;;;;;;;;;;5075404;28;20380;-64
2021/10/21 00:29:42;;;;;;;20.00;7.75;;;;;;;;;;5075233;28;20027;-63
2021/10/21 00:32:08;;;;;;;18.70;7.38;;;;;;;;;;5075519;28;20017;-63
2021/10/21 00:34:34;;;;;;;17.75;7.25;;;;;;;;;;5075275;28;20028;-63
2021/10/21 00:37:00;;;;;;;27.20;16.38;;;;;;;;;;5075249;28;20115;-62
2021/10/21 00:39:26;;;;;;;20.08;7.38;;;;;;;;;;5075709;28;20060;-61
2021/10/21 00:41:52;;;;;;;16.30;6.72;;;;;;;;;;5075587;28;20020;-62
2021/10/21 00:44:20;;;;;;;20.05;7.90;;;;;;;;;;5075337;28;20115;-62
2021/10/21 00:46:46;;;;;;;19.00;8.05;;;;;;;;;;5075227;28;20149;-63
2021/10/21 00:49:12;;;;;;;20.27;9.35;;;;;;;;;;5075246;28;20054;-60
2021/10/21 00:51:39;;;;;;;16.30;7.13;;;;;;;;;;5075512;28;20091;-63
2021/10/21 00:54:06;;;;;;;18.20;7.60;;;;;;;;;;5075075;28;20039;-64
2021/10/21 00:56:32;;;;;;;18.10;6.63;;;;;;;;;;5074675;28;20028;-63
2021/10/21 00:58:58;;;;;;;17.95;8.00;;;;;;;;;;5075069;28;20110;-64
2021/10/21 01:01:28;;;;;;;18.42;7.68;;;;;;;;;;5074927;28;20092;-63
2021/10/21 01:03:54;;;;;;;17.90;8.10;;;;;;;;;;5074770;28;20206;-63
2021/10/21 01:06:20;;;;;;;21.98;11.10;;;;;;;;;;5075209;28;20069;-63
2021/10/21 01:08:47;;;;;;;21.35;16.17;;;;;;;;;;5075302;28;20024;-63
2021/10/21 01:11:13;;;;;;;22.60;19.48;;;;;;;;;;5076163;28;20554;-64
2021/10/21 01:13:39;;;;;;;21.42;18.75;;;;;;;;;;5075854;28;20024;-64
2021/10/21 01:16:07;;;;;;;23.95;21.55;;;;;;;;;;5075164;28;20380;-64
2021/10/21 01:18:33;;;;;;;28.73;25.92;;;;;;;;;;5074647;28;20035;-63
2021/10/21 01:21:00;;;;;;;29.95;27.20;;;;;;;;;;5074784;28;20024;-64
2021/10/21 01:23:26;;;;;;;29.10;26.40;;;;;;;;;;5074343;28;20028;-64
2021/10/21 01:25:52;;;;;;;29.20;26.60;;;;;;;;;;5074346;28;20028;-63
2021/10/21 01:28:18;;;;;;;29.00;26.17;;;;;;;;;;5074304;28;20024;-66
2021/10/21 01:30:44;;;;;;;29.38;26.48;;;;;;;;;;5074253;28;20035;-65
2021/10/21 01:33:10;;;;;;;28.48;25.98;;;;;;;;;;5074263;28;20635;-63
2021/10/21 01:35:37;;;;;;;27.50;24.95;;;;;;;;;;5074095;28;20403;-63
2021/10/21 01:38:03;;;;;;;27.85;25.13;;;;;;;;;;5075823;28;20024;-65
2021/10/21 01:40:29;;;;;;;26.73;24.23;;;;;;;;;;5076241;28;20136;-66
2021/10/21 01:42:55;;;;;;;27.50;25.00;;;;;;;;;;5074181;28;20028;-66
2021/10/21 01:45:23;;;;;;;29.50;26.90;;;;;;;;;;5073860;28;20063;-64
2021/10/21 01:47:49;;;;;;;28.00;24.03;;;;;;;;;;5073671;28;20028;-64
2021/10/21 01:50:16;;;;;;;27.17;24.60;;;;;;;;;;5073867;28;20791;-66
2021/10/21 01:52:42;;;;;;;27.25;24.60;;;;;;;;;;5073897;28;20471;-65
2021/10/21 01:55:09;;;;;;;26.00;23.33;;;;;;;;;;5073915;28;20479;-63
2021/10/21 01:57:35;;;;;;;27.30;24.75;;;;;;;;;;5073646;28;20093;-62
2021/10/21 02:00:02;;;;;;;25.00;22.05;;;;;;;;;;5073757;28;20119;-62
2021/10/21 02:02:28;;;;;;;26.90;24.48;;;;;;;;;;5073668;28;20116;-64
2021/10/21 02:04:54;;;;;;;25.23;22.70;;;;;;;;;;5073672;28;20093;-62
2021/10/21 02:07:20;;;;;;;18.60;16.60;;;;;;;;;;5073549;28;20468;-61
2021/10/21 02:09:46;;;;;;;17.88;14.10;;;;;;;;;;5073139;28;20111;-64
2021/10/21 02:12:12;;;;;;;16.17;12.80;;;;;;;;;;5073578;28;20024;-64
2021/10/21 02:14:38;;;;;;;17.63;10.40;;;;;;;;;;5073356;28;20459;-63
2021/10/21 02:17:06;;;;;;;15.80;9.60;;;;;;;;;;5073306;28;20047;-62
2021/10/21 02:19:32;;;;;;;15.95;8.65;;;;;;;;;;5073443;28;20057;-64
2021/10/21 02:21:58;;;;;;;19.52;8.65;;;;;;;;;;5073554;28;20028;-62
2021/10/21 02:24:24;;;;;;;15.43;7.85;;;;;;;;;;5073738;28;20024;-63
2021/10/21 02:26:50;;;;;;;15.60;9.45;;;;;;;;;;5073122;28;20571;-63
2021/10/21 02:29:16;;;;;;;14.55;7.20;;;;;;;;;;5073290;28;20117;-62
2021/10/21 02:31:42;;;;;;;14.95;7.15;;;;;;;;;;5073722;28;20069;-62
2021/10/21 02:34:08;;;;;;;16.80;7.20;;;;;;;;;;5073624;28;20134;-59
2021/10/21 02:36:34;;;;;;;12.85;6.07;;;;;;;;;;5073788;28;20043;-62
2021/10/21 02:39:00;;;;;;;14.73;6.30;;;;;;;;;;5073584;28;20035;-60
2021/10/21 02:41:27;;;;;;;13.80;6.88;;;;;;;;;;5073303;28;20020;-62
2021/10/21 02:43:53;;;;;;;15.63;6.70;;;;;;;;;;5073172;28;20024;-63
2021/10/21 02:46:19;;;;;;;15.98;6.60;;;;;;;;;;5073354;28;20476;-62
2021/10/21 02:48:45;;;;;;;14.93;5.65;;;;;;;;;;5073513;28;20072;-63
2021/10/21 02:51:11;;;;;;;13.30;6.82;;;;;;;;;;5073848;28;20059;-64
2021/10/21 02:53:37;;;;;;;13.52;6.13;;;;;;;;;;5074030;28;20016;-61
2021/10/21 02:56:03;;;;;;;15.68;6.10;;;;;;;;;;5073059;28;20505;-61
2021/10/21 02:58:29;;;;;;;11.80;6.15;;;;;;;;;;5073304;28;20050;-64
2021/10/21 03:00:55;;;;;;;13.85;5.90;;;;;;;;;;5073198;28;20023;-60
2021/10/21 03:03:21;;;;;;;16.70;5.43;;;;;;;;;;5073052;28;20052;-63
2021/10/21 03:05:47;;;;;;;13.98;5.82;;;;;;;;;;5072907;28;20066;-64
2021/10/21 03:08:13;;;;;;;12.88;5.85;;;;;;;;;;5072984;28;20115;-64
2021/10/21 03:10:39;;;;;;;13.38;5.93;;;;;;;;;;5072762;28;20116;-61
2021/10/21 03:13:05;;;;;;;17.40;13.45;;;;;;;;;;5072866;28;20479;-61
2021/10/21 03:15:31;;;;;;;20.33;18.27;;;;;;;;;;5072692;28;20476;-62
2021/10/21 03:17:58;;;;;;;20.30;18.20;;;;;;;;;;5072962;28;20368;-61
2021/10/21 03:20:24;;;;;;;22.48;17.25;;;;;;;;;;5073615;28;20336;-62
2021/10/21 03:22:50;;;;;;;19.25;15.57;;;;;;;;;;5077125;28;20032;-59
2021/10/21 03:25:16;;;;;;;18.38;13.15;;;;;;;;;;5076447;28;20024;-59
2021/10/21 03:27:42;;;;;;;16.60;12.00;;;;;;;;;;5076590;28;20020;-62
2021/10/21 03:30:09;;;;;;;17.35;10.80;;;;;;;;;;5076907;28;20028;-59
2021/10/21 03:32:35;;;;;;;18.67;9.73;;;;;;;;;;5076477;28;20024;-63
2021/10/21 03:35:01;;;;;;;16.30;9.23;;;;;;;;;;5094640;28;20059;-61
2021/10/21 03:37:28;;;;;;;15.15;7.70;;;;;;;;;;5076240;28;20102;-60
2021/10/21 03:39:54;;;;;;;15.32;7.45;;;;;;;;;;5076185;28;20024;-60
2021/10/21 03:42:21;;;;;;;14.38;7.03;;;;;;;;;;5076057;28;20031;-64
2021/10/21 03:44:48;;;;;;;17.73;6.50;;;;;;;;;;5076363;28;20505;-60
2021/10/21 03:47:15;;;;;;;14.38;6.50;;;;;;;;;;5075978;28;20028;-63
2021/10/21 03:49:41;;;;;;;15.63;7.18;;;;;;;;;;5076041;28;20028;-63
2021/10/21 03:52:07;;;;;;;12.63;6.30;;;;;;;;;;5076100;28;20054;-64
2021/10/21 03:54:33;;;;;;;13.95;6.60;;;;;;;;;;5075856;28;20017;-62
2021/10/21 03:56:59;;;;;;;14.30;6.18;;;;;;;;;;5075670;28;20027;-61
2021/10/21 03:59:25;;;;;;;13.85;5.57;;;;;;;;;;5076079;28;20051;-62
2021/10/21 04:01:54;;;;;;;15.50;5.80;;;;;;;;;;5077339;28;20063;-59
2021/10/21 04:04:21;;;;;;;17.02;6.32;;;;;;;;;;5077850;28;20101;-55
2021/10/21 04:06:47;;;;;;;12.77;6.45;;;;;;;;;;5075755;28;20031;-62
2021/10/21 04:09:15;;;;;;;16.60;6.75;;;;;;;;;;5075788;28;20123;-61
2021/10/21 04:11:41;;;;;;;15.77;6.60;;;;;;;;;;5075703;28;20020;-63
2021/10/21 04:14:07;;;;;;;14.70;6.22;;;;;;;;;;5075518;28;20109;-60
2021/10/21 04:16:33;;;;;;;15.55;6.40;;;;;;;;;;5075346;28;20108;-60
2021/10/21 04:18:59;;;;;;;13.77;5.80;;;;;;;;;;5075659;28;20024;-60
2021/10/21 04:21:25;;;;;;;13.00;5.53;;;;;;;;;;5075511;28;20024;-63
2021/10/21 04:23:51;;;;;;;12.23;4.90;;;;;;;;;;5075431;28;20032;-63
2021/10/21 04:26:17;;;;;;;13.00;4.30;;;;;;;;;;5075369;28;20028;-57
2021/10/21 04:28:44;;;;;;;12.27;4.47;;;;;;;;;;5075382;28;20027;-60
2021/10/21 04:31:10;;;;;;;11.90;4.50;;;;;;;;;;5074739;28;20384;-61
2021/10/21 04:33:36;;;;;;;8.30;4.05;;;;;;;;;;5075131;28;20016;-61
2021/10/21 04:36:02;;;;;;;12.15;4.40;;;;;;;;;;5075087;28;20027;-62
2021/10/21 04:38:28;;;;;;;11.88;4.32;;;;;;;;;;5075079;28;20028;-60
2021/10/21 04:40:54;;;;;;;14.80;4.50;;;;;;;;;;5075281;28;20480;-62
2021/10/21 04:43:20;;;;;;;14.13;4.55;;;;;;;;;;5074935;28;20089;-63
2021/10/21 04:45:46;;;;;;;10.52;4.20;;;;;;;;;;5074749;28;20024;-62
2021/10/21 04:48:13;;;;;;;15.20;5.30;;;;;;;;;;5071918;28;20020;-63
2021/10/21 04:50:39;;;;;;;13.63;4.80;;;;;;;;;;5062557;28;20043;-60
2021/10/21 04:53:05;;;;;;;13.13;4.95;;;;;;;;;;5069438;28;20052;-64
2021/10/21 04:55:35;;;;;;;11.07;5.18;;;;;;;;;;5074793;28;20024;-62
2021/10/21 04:58:02;;;;;;;11.57;4.55;;;;;;;;;;5071609;28;20028;-62
2021/10/21 05:00:28;;;;;;;12.38;5.03;;;;;;;;;;5054610;28;20602;-63
2021/10/21 05:02:54;;;;;;;12.45;5.40;;;;;;;;;;5055015;28;20029;-62
2021/10/21 05:05:20;;;;;;;12.75;5.00;;;;;;;;;;5090722;23;20445;-64
2021/10/21 05:07:47;;;;;;;11.65;4.90;;;;;;;;;;5072693;28;20101;-65
2021/10/21 05:10:13;;;;;;;15.98;5.47;;;;;;;;;;5073427;28;20024;-65
2021/10/21 05:12:39;;;;;;;12.13;5.63;;;;;;;;;;5073443;28;20024;-65
2021/10/21 05:15:05;;;;;;;12.65;5.47;;;;;;;;;;5070240;28;20025;-65
2021/10/21 05:17:31;;;;;;;12.77;4.50;;;;;;;;;;5053193;28;20048;-65
2021/10/21 05:19:57;;;;;;;11.45;4.50;;;;;;;;;;5053193;28;20097;-64
2021/10/21 05:22:23;;;;;;;10.60;4.00;;;;;;;;;;5053016;28;20396;-65
2021/10/21 05:24:49;;;;;;;8.77;3.70;;;;;;;;;;5069876;28;20029;-64
2021/10/21 05:27:15;;;;;;;12.55;4.20;;;;;;;;;;5069751;28;20074;-64
2021/10/21 05:29:41;;;;;;;11.38;4.22;;;;;;;;;;5070970;28;20398;-64
2021/10/21 05:32:07;;;;;;;10.02;4.70;;;;;;;;;;5071460;28;20016;-65
2021/10/21 05:34:34;;;;;;;11.07;4.85;;;;;;;;;;5070824;28;20035;-65
2021/10/21 05:37:01;;;;;;;13.00;5.40;;;;;;;;;;5070235;28;20020;-65
2021/10/21 05:39:27;;;;;;;13.50;5.13;;;;;;;;;;5070878;28;20028;-64
2021/10/21 05:41:53;;;;;;;15.40;5.40;;;;;;;;;;5071094;28;20039;-65
2021/10/21 05:44:19;;;;;;;18.20;5.28;;;;;;;;;;5069897;28;20359;-64
2021/10/21 05:46:48;;;;;;;10.77;4.40;;;;;;;;;;5070148;28;20024;-65
2021/10/21 05:49:14;;;;;;;13.30;4.35;;;;;;;;;;5076149;28;20020;-65
2021/10/21 05:51:40;;;;;;;12.27;4.65;;;;;;;;;;5090589;28;20087;-65
2021/10/21 05:54:06;;;;;;;13.45;4.43;;;;;;;;;;5090887;28;20360;-65
2021/10/21 05:56:32;;;;;;;13.45;5.38;;;;;;;;;;5091032;28;20044;-65
2021/10/21 05:58:58;;;;;;;14.02;4.50;;;;;;;;;;5092614;28;20048;-65
2021/10/21 06:01:24;;;;;;;11.65;4.05;;;;;;;;;;5096930;28;20039;-65
2021/10/21 06:03:50;;;;;;;13.10;4.68;;;;;;;;;;5096617;28;20391;-65
2021/10/21 06:06:16;;;;;;;12.95;4.35;;;;;;;;;;5094378;28;20043;-64
2021/10/21 06:08:44;;;;;;;13.05;4.07;;;;;;;;;;5096669;28;20019;-63
2021/10/21 06:11:10;;;;;;;9.18;3.50;;;;;;;;;;5093780;28;20428;-65
2021/10/21 06:13:37;;;;;;;11.65;4.20;;;;;;;;;;5089472;28;20020;-65
2021/10/21 06:16:03;;;;;;;15.20;5.90;;;;;;;;;;5090630;28;20092;-65
2021/10/21 06:18:29;;;;;;;10.75;4.40;;;;;;;;;;5090622;28;20020;-65
2021/10/21 06:20:56;;;;;;;10.05;4.10;;;;;;;;;;5089081;28;20058;-64
2021/10/21 06:23:24;;;;;;;11.50;4.05;;;;;;;;;;5085039;28;20471;-65
2021/10/21 06:25:49;;;;;;;8.18;3.80;;;;;;;;;;5068837;28;20032;-65
2021/10/21 06:28:15;;;;;;;13.30;4.60;;;;;;;;;;5070610;28;20020;-65
2021/10/21 06:30:41;;;;;;;9.25;3.85;;;;;;;;;;5068882;28;20027;-65
2021/10/21 06:33:08;;;;;;;15.35;4.22;;;;;;;;;;5070463;28;20137;-64
2021/10/21 06:35:34;;;;;;;9.95;4.00;;;;;;;;;;5068346;28;20017;-64
2021/10/21 06:38:00;;;;;;;13.40;4.82;;;;;;;;;;5069045;28;20349;-64
2021/10/21 06:40:27;;;;;;;14.90;4.50;;;;;;;;;;5069008;28;20376;-65
2021/10/21 06:42:53;;;;;;;13.90;5.80;;;;;;;;;;5070225;28;20035;-64
2021/10/21 06:45:19;;;;;;;12.85;5.95;;;;;;;;;;5069833;28;20088;-64
2021/10/21 06:47:45;;;;;;;16.30;7.50;;;;;;;;;;5070039;28;20062;-63
2021/10/21 06:50:12;;;;;;;17.63;8.68;;;;;;;;;;5076186;28;20479;-63
2021/10/21 06:52:38;;;;;;;16.23;13.65;;;;;;;;;;5090492;28;20059;-62
2021/10/21 06:55:04;;;;;;;16.90;15.10;;;;;;;;;;5092339;28;20448;-65
2021/10/21 06:57:30;;;;;;;18.27;15.40;;;;;;;;;;5094284;28;20459;-65
2021/10/21 06:59:57;;;;;;;17.45;14.00;;;;;;;;;;5093252;28;20425;-65
2021/10/21 07:02:23;;;;;;;21.00;18.90;;;;;;;;;;5094618;28;20016;-66
2021/10/21 07:04:49;;;;;;;21.70;19.50;;;;;;;;;;5092930;28;20123;-65
2021/10/21 07:07:15;;;;;;;21.52;18.15;;;;;;;;;;5092749;28;20115;-65
2021/10/21 07:09:41;;;;;;;22.70;19.05;;;;;;;;;;5094230;28;20620;-66
2021/10/21 07:12:07;;;;;;;18.42;16.52;;;;;;;;;;5093120;28;20069;-66
2021/10/21 07:14:33;;;;;;;19.38;17.35;;;;;;;;;;5094297;28;20103;-64
2021/10/21 07:16:59;;;;;;;17.75;15.95;;;;;;;;;;5092607;28;20031;-65
2021/10/21 07:19:25;;;;;;;17.95;16.15;;;;;;;;;;5092990;28;20020;-64
2021/10/21 07:21:51;;;;;;;19.40;17.48;;;;;;;;;;5094017;28;20016;-65
2021/10/21 07:24:17;;;;;;;19.00;17.20;;;;;;;;;;5093911;28;20069;-64
2021/10/21 07:26:43;;;;;;;19.13;17.10;;;;;;;;;;5093922;28;20107;-65
2021/10/21 07:29:09;;;;;;;18.15;16.35;;;;;;;;;;5093832;28;20028;-65
2021/10/21 07:31:35;;;;;;;17.50;15.60;;;;;;;;;;5093741;28;20069;-65
2021/10/21 07:34:01;;;;;;;17.00;15.20;;;;;;;;;;5093815;28;20081;-63
2021/10/21 07:36:27;;;;;;;15.88;14.00;;;;;;;;;;5093724;28;20084;-65
2021/10/21 07:38:53;;;;;;;16.98;13.35;;;;;;;;;;5092393;28;20042;-66
2021/10/21 07:41:20;;;;;;;16.00;12.63;;;;;;;;;;5093893;28;20024;-66
2021/10/21 07:43:46;;;;;;;15.10;12.30;;;;;;;;;;5093842;28;20071;-64
2021/10/21 07:46:12;;;;;;;14.93;12.95;;;;;;;;;;5093336;28;20129;-64
2021/10/21 07:48:38;;;;;;;16.10;11.30;;;;;;;;;;5086028;28;20287;-65
2021/10/21 07:51:04;;;;;;;15.38;11.20;;;;;;;;;;5063813;28;20369;-65
2021/10/21 07:53:32;;;;;;;15.27;11.25;;;;;;;;;;5066564;28;20122;-65
2021/10/21 07:56:00;;;;;;;16.15;11.05;;;;;;;;;;5061897;28;20693;-65
2021/10/21 07:58:26;;;;;;;14.77;11.80;;;;;;;;;;5072740;28;20372;-65
2021/10/21 08:00:52;;;;;;;16.27;12.07;;;;;;;;;;5072228;28;20267;-68
2021/10/21 08:03:19;;;;;;;15.50;11.57;;;;;;;;;;5054100;28;20037;-66
2021/10/21 08:05:45;;;;;;;16.27;12.15;;;;;;;;;;5069585;28;20032;-64
2021/10/21 08:08:11;;;;;;;20.23;12.40;;;;;;;;;;5071707;28;20070;-64
2021/10/21 08:10:37;;;;;;;18.05;12.35;;;;;;;;;;5070592;28;20027;-66
2021/10/21 08:13:03;;;;;;;19.73;13.02;;;;;;;;;;5040258;28;20397;-63
2021/10/21 08:15:29;;;;;;;19.58;11.10;;;;;;;;;;5051876;28;20087;-68
2021/10/21 08:17:57;;;;;;;14.35;9.63;;;;;;;;;;5051918;28;20029;-65
2021/10/21 08:20:29;;;;;;;15.80;8.95;;;;;;;;;;5072076;28;20147;-63
2021/10/21 08:22:55;;;;;;;15.18;9.00;;;;;;;;;;5070594;28;20024;-65
2021/10/21 08:25:25;;;;;;;16.35;8.40;;;;;;;;;;5070159;28;20458;-64
2021/10/21 08:27:51;;;;;;;16.42;8.88;;;;;;;;;;5070027;28;20444;-64
2021/10/21 08:30:22;;;;;;;14.00;7.70;;;;;;;;;;5070338;28;20468;-64
2021/10/21 08:32:48;;;;;;;14.20;8.00;;;;;;;;;;5070426;28;20033;-64
2021/10/21 08:35:15;;;;;;;15.90;7.88;;;;;;;;;;5069740;28;20484;-63
2021/10/21 08:37:41;;;;;;;17.92;8.38;;;;;;;;;;5070148;28;20024;-64
2021/10/21 08:40:08;;;;;;;18.10;7.65;;;;;;;;;;5070331;28;20025;-64
2021/10/21 08:42:34;;;;;;;12.95;6.90;;;;;;;;;;5069037;28;20520;-64
2021/10/21 08:45:00;;;;;;;15.38;7.15;;;;;;;;;;5069766;28;20372;-63
2021/10/21 08:47:27;;;;;;;16.80;7.35;;;;;;;;;;5069931;28;20020;-63
2021/10/21 08:49:55;;;;;;;18.17;7.32;;;;;;;;;;5073888;28;20020;-63
2021/10/21 08:52:21;;;;;;;15.85;6.18;;;;;;;;;;5090497;28;20027;-63
2021/10/21 08:54:47;;;;;;;29.30;8.48;;;;;;;;;;5090224;28;20030;-63
2021/10/21 08:57:14;;;;;;;17.05;6.30;;;;;;;;;;5091565;28;20020;-64
2021/10/21 08:59:41;;;;;;;14.38;6.35;;;;;;;;;;5090265;28;20020;-63
2021/10/21 09:02:18;;;;;;;16.67;6.43;;;;;;;;;;5090365;28;20035;-64
2021/10/21 09:05:05;;;;;;;18.48;6.38;;;;;;;;;;5074379;28;20038;-65
2021/10/21 09:10:17;;;;;;;15.25;5.18;;;;;;;;;;5071008;28;20113;-64
2021/10/21 09:12:44;;;;;;;15.40;4.93;;;;;;;;;;5070946;28;20467;-64
2021/10/21 09:15:12;;;;;;;17.48;4.90;;;;;;;;;;5070736;28;20043;-64
2021/10/21 09:17:38;;;;;;;;;;;;;;;;;;5069805;28;20127;-63
2021/10/21 09:20:23;;;;;;;16.95;11.43;;;;;;;;;;5070595;28;19905;-63
2021/10/21 09:22:59;;;;;;;28.33;21.80;;;;;;;;;;5070740;28;20463;-65
2021/10/21 09:25:27;;;;;;;24.52;21.88;;;;;;;;;;5071139;28;20036;-64
2021/10/21 09:27:56;;;;;;;20.20;18.20;;;;;;;;;;5069372;28;20392;-63
2021/10/21 09:30:30;;;;;;;23.85;14.43;;;;;;;;;;5069571;28;20033;-64
2021/10/21 09:33:01;;;;;;;22.48;11.38;;;;;;;;;;5069275;28;20031;-64
2021/10/21 09:35:27;;;;;;;19.67;10.35;;;;;;;;;;5070986;28;20017;-64
2021/10/21 09:37:56;;;;;;;16.50;9.75;;;;;;;;;;5069381;28;20024;-66
2021/10/21 09:40:26;;;;;;;21.55;9.45;;;;;;;;;;5066359;28;20040;-65
2021/10/21 09:42:55;;;;;;;23.00;9.90;;;;;;;;;;5057903;28;20017;-65
2021/10/21 09:45:29;;;;;;;18.95;8.90;;;;;;;;;;5058714;28;20082;-65
2021/10/21 09:47:57;;;;;;;18.63;9.10;;;;;;;;;;5049878;28;20017;-64
2021/10/21 09:50:25;;;;;;;19.40;8.65;;;;;;;;;;5044895;28;20090;-64
2021/10/21 09:53:07;;;;;;;19.90;9.70;;;;;;;;;;5058409;28;20104;-64
2021/10/21 09:55:34;;;;;;;19.67;7.85;;;;;;;;;;5060754;28;20021;-64
2021/10/21 09:58:01;;;;;;;19.38;7.72;;;;;;;;;;5059386;28;20078;-64
2021/10/21 10:00:29;;;;;;;22.13;8.15;;;;;;;;;;5060321;28;20116;-65
2021/10/21 10:03:05;;;;;;;23.23;6.38;;;;;;;;;;5058638;28;20027;-65
2021/10/21 10:05:31;;;;;;;20.95;6.47;;;;;;;;;;5057726;28;20028;-64
2021/10/21 10:07:58;;;;;;;22.20;7.03;;;;;;;;;;5060123;28;20373;-66
2021/10/21 10:10:24;;;;;;;19.63;9.05;;;;;;;;;;5059563;28;20562;-66
2021/10/21 10:12:49;;;;;;;19.38;6.72;;;;;;;;;;5058035;28;20013;-65
2021/10/21 10:15:16;;;;;;;19.17;7.32;;;;;;;;;;5059541;28;20069;-64
2021/10/21 10:17:42;;;;;;;17.17;6.78;;;;;;;;;;5059552;28;20020;-65
2021/10/21 10:20:08;;;;;;;16.38;5.78;;;;;;;;;;5059401;28;20028;-65
2021/10/21 10:22:36;;;;;;;16.17;6.20;;;;;;;;;;5057347;28;20074;-66
2021/10/21 10:25:15;;;;;;;18.48;5.68;;;;;;;;;;5065904;28;20028;-65
2021/10/21 10:27:52;;;;;;;16.88;6.93;;;;;;;;;;5068763;28;20025;-65
2021/10/21 10:30:38;;;;;;;16.10;5.30;;;;;;;;;;5068632;28;20499;-65
2021/10/21 10:33:04;;;;;;;17.55;6.07;;;;;;;;;;5069648;28;20025;-65
2021/10/21 10:35:32;;;;;;;16.70;7.72;;;;;;;;;;5069239;28;20032;-65
2021/10/21 10:38:02;;;;;;;21.13;10.02;;;;;;;;;;5067941;28;20044;-65
2021/10/21 10:40:38;;;;;;;20.60;13.02;;;;;;;;;;5066274;28;20024;-66
2021/10/21 10:43:04;;;;;;;18.95;12.85;;;;;;;;;;5063955;28;20457;-66
2021/10/21 10:45:39;;;;;;;16.42;11.95;;;;;;;;;;5068182;28;20093;-65
2021/10/21 10:48:06;;;;;;;19.13;12.20;;;;;;;;;;5068985;28;20032;-67
2021/10/21 10:50:35;;;;;;;18.92;11.93;;;;;;;;;;5078135;28;20030;-66
2021/10/21 10:53:03;;;;;;;22.63;14.00;;;;;;;;;;5089108;28;20438;-66
2021/10/21 10:55:52;;;;;;;19.48;12.10;;;;;;;;;;5088883;28;20020;-66
2021/10/21 10:58:25;;;;;;;17.77;12.60;;;;;;;;;;5088913;28;20040;-66
2021/10/21 11:00:56;;;;;;;30.75;16.30;;;;;;;;;;5089153;28;20391;-67
2021/10/21 11:03:42;;;;;;;25.70;16.25;;;;;;;;;;5088566;28;20031;-67
2021/10/21 11:06:15;;;;;;;26.00;17.95;;;;;;;;;;5087880;22;20522;-66
2021/10/21 11:08:47;;;;;;;22.02;19.30;;;;;;;;;;5069415;28;20060;-66
2021/10/21 11:11:32;;;;;;;23.55;18.42;;;;;;;;;;5069320;28;20042;-67
2021/10/21 11:14:05;;;;;;;22.08;17.98;;;;;;;;;;5069389;28;20027;-66
2021/10/21 11:16:41;;;;;;;21.90;16.60;;;;;;;;;;5048656;28;20116;-66
2021/10/21 11:19:08;;;;;;;23.73;16.67;;;;;;;;;;5049517;28;20029;-67
2021/10/21 11:21:54;;;;;;;19.40;15.35;;;;;;;;;;5049494;28;20370;-65
2021/10/21 11:24:38;;;;;;;20.90;14.02;;;;;;;;;;5049287;28;20025;-66
2021/10/21 11:27:07;;;;;;;20.38;16.50;;;;;;;;;;5030027;28;20075;-65
2021/10/21 11:29:34;;;;;;;21.27;18.13;;;;;;;;;;5042403;28;20322;-64
2021/10/21 11:32:01;;;;;;;21.92;16.42;;;;;;;;;;4699480;28;10000515;-65
2021/10/21 11:34:27;;;;;;;20.77;15.05;;;;;;;;;;5046942;28;20032;-65
2021/10/21 11:36:53;;;;;;;17.10;12.38;;;;;;;;;;5047513;28;20029;-67
2021/10/21 11:39:29;;;;;;;20.88;10.63;;;;;;;;;;5047878;28;20476;-66
2021/10/21 11:41:55;;;;;;;18.63;9.50;;;;;;;;;;5049823;28;20114;-66
2021/10/21 11:44:22;;;;;;;14.95;8.05;;;;;;;;;;5049935;28;20033;-65
2021/10/21 11:46:56;;;;;;;18.10;8.02;;;;;;;;;;5051240;28;20096;-65
2021/10/21 11:49:29;;;;;;;18.15;7.50;;;;;;;;;;5049814;28;20021;-66
2021/10/21 11:52:11;;;;;;;14.48;7.05;;;;;;;;;;5050042;28;20044;-69
2021/10/21 11:54:38;;;;;;;16.52;6.82;;;;;;;;;;5049948;28;20021;-66
2021/10/21 11:57:05;;;;;;;15.88;6.90;;;;;;;;;;5049517;28;20024;-65
2021/10/21 11:59:38;;;;;;;16.63;7.55;;;;;;;;;;5050233;28;20013;-68
2021/10/21 12:02:14;;;;;;;16.92;6.80;;;;;;;;;;5050054;28;20104;-66
2021/10/21 12:04:41;;;;;;;14.75;6.68;;;;;;;;;;5049894;28;20588;-65
2021/10/21 12:07:07;;;;;;;17.63;8.18;;;;;;;;;;5049398;28;20005;-65
2021/10/21 12:09:34;;;;;;;16.38;9.07;;;;;;;;;;5049890;28;20029;-65
2021/10/21 12:12:08;;;;;;;15.57;7.55;;;;;;;;;;5051376;28;20021;-66
2021/10/21 12:14:37;;;;;;;15.65;6.00;;;;;;;;;;5049403;28;20028;-66
2021/10/21 12:17:07;;;;;;;13.50;6.03;;;;;;;;;;5050751;28;20096;-67
2021/10/21 12:19:33;;;;;;;12.50;4.90;;;;;;;;;;5049313;28;20025;-65
2021/10/21 12:22:19;;;;;;;17.10;5.07;;;;;;;;;;5049453;28;20032;-66
2021/10/21 12:24:47;;;;;;;14.85;5.70;;;;;;;;;;5049094;28;20115;-66
2021/10/21 12:27:27;;;;;;;13.83;5.97;;;;;;;;;;5049050;28;20072;-66
2021/10/21 12:30:08;;;;;;;15.85;6.55;;;;;;;;;;5048218;28;20025;-65
2021/10/21 12:32:35;;;;;;;15.15;5.55;;;;;;;;;;5049390;28;20086;-66
2021/10/21 12:35:05;;;;;;;12.10;5.50;;;;;;;;;;5048777;28;20053;-66
2021/10/21 12:37:39;;;;;;;14.43;5.40;;;;;;;;;;5049143;28;20013;-66
2021/10/21 12:40:12;;;;;;;12.93;5.10;;;;;;;;;;5051364;28;20024;-66
2021/10/21 12:42:38;;;;;;;13.25;5.00;;;;;;;;;;5051790;28;20024;-67
2021/10/21 12:45:04;;;;;;;14.75;5.00;;;;;;;;;;5052944;28;20096;-67
2021/10/21 12:47:31;;;;;;;13.25;4.80;;;;;;;;;;5049451;28;20487;-66
2021/10/21 12:50:01;;;;;;;16.95;5.60;;;;;;;;;;5050510;28;20025;-67
2021/10/21 12:52:28;;;;;;;13.65;6.00;;;;;;;;;;5041269;28;20377;-66
2021/10/21 12:55:15;;;;;;;14.07;5.57;;;;;;;;;;5039946;28;20025;-66
2021/10/21 12:57:50;;;;;;;14.88;6.20;;;;;;;;;;5044418;28;20013;-67
2021/10/21 13:00:36;;;;;;;14.85;6.43;;;;;;;;;;5031043;28;20037;-66
2021/10/21 13:03:14;;;;;;;12.65;5.35;;;;;;;;;;5030853;28;20021;-66
2021/10/21 13:05:40;;;;;;;12.05;5.45;;;;;;;;;;5030851;28;20040;-66
2021/10/21 13:08:07;;;;;;;13.82;4.82;;;;;;;;;;5031259;28;20021;-66
2021/10/21 13:10:33;;;;;;;11.95;6.00;;;;;;;;;;5031401;28;20033;-66
2021/10/21 13:12:59;;;;;;;13.90;6.47;;;;;;;;;;5031406;28;20018;-67
2021/10/21 13:15:25;;;;;;;14.05;7.88;;;;;;;;;;5030917;28;20025;-66
2021/10/21 13:17:51;;;;;;;17.35;9.95;;;;;;;;;;5031101;28;20493;-66
2021/10/21 13:20:21;;;;;;;14.20;8.50;;;;;;;;;;5030953;28;20083;-66
2021/10/21 13:22:47;;;;;;;14.43;9.65;;;;;;;;;;5030787;28;20025;-66
2021/10/21 13:25:13;;;;;;;14.85;9.73;;;;;;;;;;5031200;28;20022;-66
2021/10/21 13:27:41;;;;;;;13.95;8.85;;;;;;;;;;5030482;28;20028;-66
2021/10/21 13:30:08;;;;;;;14.10;9.23;;;;;;;;;;5030652;28;20029;-66
2021/10/21 13:32:34;;;;;;;14.30;7.85;;;;;;;;;;5030652;28;20525;-67
2021/10/21 13:35:00;;;;;;;12.70;7.38;;;;;;;;;;5030575;28;20101;-66
2021/10/21 13:37:27;;;;;;;13.15;7.25;;;;;;;;;;4684553;28;10000376;-66
2021/10/21 13:39:53;;;;;;;16.48;7.22;;;;;;;;;;5047475;28;20417;-66
2021/10/21 13:42:19;;;;;;;15.43;6.45;;;;;;;;;;5047353;28;20433;-66
2021/10/21 13:44:46;;;;;;;13.88;7.00;;;;;;;;;;5046897;28;20037;-65
2021/10/21 13:47:12;;;;;;;15.85;8.15;;;;;;;;;;5046622;28;20486;-66
2021/10/21 13:49:40;;;;;;;15.23;9.13;;;;;;;;;;5043176;28;20236;-66
2021/10/21 13:52:06;;;;;;;16.73;10.82;;;;;;;;;;5038672;28;20028;-66
2021/10/21 13:54:32;;;;;;;16.83;12.98;;;;;;;;;;5037898;28;20029;-67
2021/10/21 13:56:59;;;;;;;15.93;12.93;;;;;;;;;;5036628;28;20108;-68
2021/10/21 13:59:26;;;;;;;16.67;12.40;;;;;;;;;;5035802;28;20434;-67
2021/10/21 14:01:52;;;;;;;15.60;11.70;;;;;;;;;;5032565;28;20081;-67
2021/10/21 14:04:18;;;;;;;15.05;11.48;;;;;;;;;;5026548;28;20022;-67
2021/10/21 14:06:44;;;;;;;15.32;11.40;;;;;;;;;;5027131;28;20065;-68
2021/10/21 14:09:10;;;;;;;16.05;11.88;;;;;;;;;;5027229;28;20017;-67
2021/10/21 14:11:36;;;;;;;14.85;9.90;;;;;;;;;;5026705;28;20103;-68
2021/10/21 14:14:05;;;;;;;15.57;10.15;;;;;;;;;;5027149;28;20514;-67
2021/10/21 14:16:31;;;;;;;14.80;9.23;;;;;;;;;;5026843;28;20052;-67
2021/10/21 14:18:57;;;;;;;16.05;8.95;;;;;;;;;;5027135;28;20389;-67
2021/10/21 14:21:23;;;;;;;14.95;9.40;;;;;;;;;;5027313;28;20233;-66
2021/10/21 14:23:49;;;;;;;14.07;8.52;;;;;;;;;;5027740;28;20504;-66
2021/10/21 14:26:15;;;;;;;14.60;8.65;;;;;;;;;;5026173;28;20029;-67
2021/10/21 14:28:42;;;;;;;15.80;8.18;;;;;;;;;;5027195;28;20025;-68
2021/10/21 14:31:08;;;;;;;15.32;8.45;;;;;;;;;;5026479;28;20037;-68